KMRY/MRY METAR and TAF weather

Enter ICAO airport designator
Station Type Date Time Source
KMRY METAR 2019/06/17 13:54 UTC NOAA

KMRY 171354Z VRB03KT 5SM BR OVC007 12/10 A2988 RMK AO2 SLP131 T01220100


Station Type Date Time Source
KMRY Decoded METAR 2019/06/17 13:54 UTC NOAA

MONTEREY PENINSULA AIRPORT, CA, United States (KMRY) 36-35N 121-51W 66M
Jun 17, 2019 - 09:54 AM EDT / 2019.06.17 1354 UTC
Wind: Variable at 3 MPH (3 KT):0
Visibility: 5 mile(s):0
Sky conditions: overcast
Weather: mist
Temperature: 54.0 F (12.2 C)
Dew Point: 50.0 F (10.0 C)
Relative Humidity: 86%
Pressure (altimeter): 29.88 in. Hg (1011 hPa)
ob: KMRY 171354Z VRB03KT 5SM BR OVC007 12/10 A2988 RMK AO2 SLP131 T01220100
cycle: 14

Station Type Date Time Source
KMRY TAF 2019/06/17 12:42 UTC NOAA

TAF KMRY 171140Z 1712/1812 VRB03KT 6SM BR OVC004
FM171700 27005KT P6SM BKN009
FM171900 27008KT P6SM SCT010
FM172100 27010KT P6SM SKC
FM180200 25005KT P6SM OVC008

Example: see airport list